sensor_id;sensor_type;location;lat;lon;timestamp;pressure;altitude;pressure_sealevel;temperature;humidity
56142;BME280;42018;48.588;10.836;2024-02-21T00:01:54;97737.34;;;7.46;65.23
56142;BME280;42018;48.588;10.836;2024-02-21T00:04:39;97732.88;;;7.46;64.96
56142;BME280;42018;48.588;10.836;2024-02-21T00:07:25;97727.91;;;7.38;64.81
56142;BME280;42018;48.588;10.836;2024-02-21T00:10:10;97724.16;;;7.27;64.72
56142;BME280;42018;48.588;10.836;2024-02-21T00:12:55;97733.69;;;7.10;65.06
56142;BME280;42018;48.588;10.836;2024-02-21T00:15:41;97724.72;;;7.11;65.52
56142;BME280;42018;48.588;10.836;2024-02-21T00:18:26;97726.28;;;7.18;65.15
56142;BME280;42018;48.588;10.836;2024-02-21T00:21:12;97723.75;;;7.30;64.66
56142;BME280;42018;48.588;10.836;2024-02-21T00:24:03;97726.50;;;7.35;64.73
56142;BME280;42018;48.588;10.836;2024-02-21T00:26:48;97723.81;;;7.42;64.69
56142;BME280;42018;48.588;10.836;2024-02-21T00:29:34;97721.16;;;7.42;64.65
56142;BME280;42018;48.588;10.836;2024-02-21T00:32:19;97708.94;;;7.48;64.61
56142;BME280;42018;48.588;10.836;2024-02-21T00:35:05;97710.63;;;7.42;64.53
56142;BME280;42018;48.588;10.836;2024-02-21T00:37:51;97706.59;;;7.39;64.47
56142;BME280;42018;48.588;10.836;2024-02-21T00:40:37;97708.84;;;7.17;65.64
56142;BME280;42018;48.588;10.836;2024-02-21T00:43:22;97699.66;;;7.08;65.76
56142;BME280;42018;48.588;10.836;2024-02-21T00:46:09;97701.69;;;7.06;65.41
56142;BME280;42018;48.588;10.836;2024-02-21T00:48:55;97696.53;;;6.93;66.37
56142;BME280;42018;48.588;10.836;2024-02-21T00:51:40;97694.50;;;6.95;65.84
56142;BME280;42018;48.588;10.836;2024-02-21T00:54:26;97687.78;;;7.17;65.24
56142;BME280;42018;48.588;10.836;2024-02-21T00:57:11;97691.44;;;7.16;65.65
56142;BME280;42018;48.588;10.836;2024-02-21T00:59:57;97694.00;;;7.23;65.16
56142;BME280;42018;48.588;10.836;2024-02-21T01:02:42;97692.66;;;7.32;64.78
56142;BME280;42018;48.588;10.836;2024-02-21T01:05:28;97689.25;;;7.32;64.78
56142;BME280;42018;48.588;10.836;2024-02-21T01:08:14;97690.31;;;7.42;64.51
56142;BME280;42018;48.588;10.836;2024-02-21T01:10:59;97680.13;;;7.46;64.02
56142;BME280;42018;48.588;10.836;2024-02-21T01:13:45;97680.69;;;7.36;64.27
56142;BME280;42018;48.588;10.836;2024-02-21T01:16:30;97679.94;;;7.29;64.72
56142;BME280;42018;48.588;10.836;2024-02-21T01:19:16;97673.00;;;7.16;64.90
56142;BME280;42018;48.588;10.836;2024-02-21T01:22:01;97672.41;;;6.96;65.55
56142;BME280;42018;48.588;10.836;2024-02-21T01:24:47;97666.81;;;6.86;66.07
56142;BME280;42018;48.588;10.836;2024-02-21T01:27:32;97661.19;;;7.01;65.63
56142;BME280;42018;48.588;10.836;2024-02-21T01:30:18;97659.81;;;6.98;65.52
56142;BME280;42018;48.588;10.836;2024-02-21T01:33:03;97652.34;;;6.95;65.42
56142;BME280;42018;48.588;10.836;2024-02-21T01:35:49;97653.53;;;6.99;65.17
56142;BME280;42018;48.588;10.836;2024-02-21T01:38:35;97650.75;;;6.94;65.76
56142;BME280;42018;48.588;10.836;2024-02-21T01:41:20;97641.16;;;6.81;66.00
56142;BME280;42018;48.588;10.836;2024-02-21T01:44:06;97641.81;;;6.95;65.77
56142;BME280;42018;48.588;10.836;2024-02-21T01:46:52;97631.41;;;7.00;65.71
56142;BME280;42018;48.588;10.836;2024-02-21T01:49:38;97636.03;;;7.05;65.31
56142;BME280;42018;48.588;10.836;2024-02-21T01:52:24;97633.22;;;7.18;64.87
56142;BME280;42018;48.588;10.836;2024-02-21T01:55:10;97628.03;;;7.30;64.50
56142;BME280;42018;48.588;10.836;2024-02-21T01:57:56;97621.50;;;7.32;64.50
56142;BME280;42018;48.588;10.836;2024-02-21T02:00:42;97623.69;;;7.35;64.25
56142;BME280;42018;48.588;10.836;2024-02-21T02:03:28;97617.19;;;7.38;64.15
56142;BME280;42018;48.588;10.836;2024-02-21T02:06:15;97607.59;;;7.43;64.14
56142;BME280;42018;48.588;10.836;2024-02-21T02:09:00;97604.81;;;7.38;63.82
56142;BME280;42018;48.588;10.836;2024-02-21T02:11:46;97590.22;;;7.36;64.10
56142;BME280;42018;48.588;10.836;2024-02-21T02:14:32;97593.91;;;7.35;63.87
56142;BME280;42018;48.588;10.836;2024-02-21T02:17:17;97596.19;;;7.31;63.55
56142;BME280;42018;48.588;10.836;2024-02-21T02:20:03;97593.78;;;7.30;63.79
56142;BME280;42018;48.588;10.836;2024-02-21T02:22:50;97583.91;;;7.07;64.68
56142;BME280;42018;48.588;10.836;2024-02-21T02:25:36;97591.03;;;6.88;65.11
56142;BME280;42018;48.588;10.836;2024-02-21T02:28:22;97585.34;;;6.72;65.53
56142;BME280;42018;48.588;10.836;2024-02-21T02:31:07;97580.25;;;6.89;65.60
56142;BME280;42018;48.588;10.836;2024-02-21T02:33:53;97577.44;;;6.72;65.42
56142;BME280;42018;48.588;10.836;2024-02-21T02:36:38;97570.97;;;6.68;65.86
56142;BME280;42018;48.588;10.836;2024-02-21T02:39:24;97576.78;;;6.77;66.17
56142;BME280;42018;48.588;10.836;2024-02-21T02:42:09;97581.06;;;6.71;66.48
56142;BME280;42018;48.588;10.836;2024-02-21T02:44:55;97577.94;;;6.81;66.39
56142;BME280;42018;48.588;10.836;2024-02-21T02:47:44;97575.50;;;6.61;66.65
56142;BME280;42018;48.588;10.836;2024-02-21T02:50:30;97564.72;;;6.69;66.51
56142;BME280;42018;48.588;10.836;2024-02-21T02:53:16;97559.88;;;6.66;66.78
56142;BME280;42018;48.588;10.836;2024-02-21T02:56:01;97562.28;;;6.68;66.83
56142;BME280;42018;48.588;10.836;2024-02-21T02:58:47;97559.09;;;6.66;67.16
56142;BME280;42018;48.588;10.836;2024-02-21T03:01:35;97550.44;;;6.77;66.85
56142;BME280;42018;48.588;10.836;2024-02-21T03:04:21;97551.09;;;6.91;66.59
56142;BME280;42018;48.588;10.836;2024-02-21T03:07:06;97551.56;;;7.00;65.63
56142;BME280;42018;48.588;10.836;2024-02-21T03:09:52;97552.69;;;6.92;65.70
56142;BME280;42018;48.588;10.836;2024-02-21T03:12:39;97550.00;;;6.80;66.52
56142;BME280;42018;48.588;10.836;2024-02-21T03:15:24;97544.94;;;6.79;66.28
56142;BME280;42018;48.588;10.836;2024-02-21T03:18:10;97546.19;;;6.76;66.48
56142;BME280;42018;48.588;10.836;2024-02-21T03:20:55;97545.38;;;6.94;65.97
56142;BME280;42018;48.588;10.836;2024-02-21T03:23:41;97536.38;;;6.65;66.56
56142;BME280;42018;48.588;10.836;2024-02-21T03:26:27;97537.56;;;6.87;66.74
56142;BME280;42018;48.588;10.836;2024-02-21T03:29:12;97538.50;;;6.75;66.68
56142;BME280;42018;48.588;10.836;2024-02-21T03:31:58;97541.13;;;6.75;66.61
56142;BME280;42018;48.588;10.836;2024-02-21T03:34:43;97538.94;;;6.71;66.15
56142;BME280;42018;48.588;10.836;2024-02-21T03:37:29;97528.78;;;6.57;66.68
56142;BME280;42018;48.588;10.836;2024-02-21T03:40:14;97536.03;;;6.61;67.06
56142;BME280;42018;48.588;10.836;2024-02-21T03:43:00;97539.47;;;6.62;67.05
56142;BME280;42018;48.588;10.836;2024-02-21T03:45:45;97535.59;;;6.64;67.25
56142;BME280;42018;48.588;10.836;2024-02-21T03:48:31;97536.59;;;6.82;66.50
56142;BME280;42018;48.588;10.836;2024-02-21T03:51:16;97529.41;;;6.89;66.45
56142;BME280;42018;48.588;10.836;2024-02-21T03:54:02;97533.97;;;6.82;66.17
56142;BME280;42018;48.588;10.836;2024-02-21T03:56:47;97534.59;;;6.95;65.88
56142;BME280;42018;48.588;10.836;2024-02-21T03:59:34;97524.19;;;6.70;66.12
56142;BME280;42018;48.588;10.836;2024-02-21T04:02:19;97516.75;;;6.98;65.61
56142;BME280;42018;48.588;10.836;2024-02-21T04:05:05;97513.41;;;6.90;65.75
56142;BME280;42018;48.588;10.836;2024-02-21T04:07:51;97510.22;;;7.00;65.57
56142;BME280;42018;48.588;10.836;2024-02-21T04:10:37;97509.50;;;6.93;65.34
56142;BME280;42018;48.588;10.836;2024-02-21T04:13:22;97506.16;;;6.86;65.55
56142;BME280;42018;48.588;10.836;2024-02-21T04:16:08;97499.25;;;7.03;65.45
56142;BME280;42018;48.588;10.836;2024-02-21T04:18:53;97494.94;;;7.20;65.00
56142;BME280;42018;48.588;10.836;2024-02-21T04:21:39;97494.41;;;7.30;65.08
56142;BME280;42018;48.588;10.836;2024-02-21T04:24:24;97499.59;;;7.37;64.58
56142;BME280;42018;48.588;10.836;2024-02-21T04:27:10;97491.78;;;7.30;64.45
56142;BME280;42018;48.588;10.836;2024-02-21T04:29:55;97486.00;;;7.22;64.30
56142;BME280;42018;48.588;10.836;2024-02-21T04:32:41;97487.31;;;7.01;65.73
56142;BME280;42018;48.588;10.836;2024-02-21T04:35:26;97480.88;;;6.96;66.04
56142;BME280;42018;48.588;10.836;2024-02-21T04:38:12;97482.59;;;6.91;66.25
56142;BME280;42018;48.588;10.836;2024-02-21T04:40:57;97478.56;;;6.88;66.24
56142;BME280;42018;48.588;10.836;2024-02-21T04:43:46;97477.53;;;6.89;66.55
56142;BME280;42018;48.588;10.836;2024-02-21T04:46:32;97477.69;;;6.94;66.01
56142;BME280;42018;48.588;10.836;2024-02-21T04:49:17;97473.50;;;7.05;65.74
56142;BME280;42018;48.588;10.836;2024-02-21T04:52:03;97472.81;;;7.22;65.46
56142;BME280;42018;48.588;10.836;2024-02-21T04:54:48;97468.34;;;7.22;65.42
56142;BME280;42018;48.588;10.836;2024-02-21T04:57:34;97467.69;;;7.27;64.98
56142;BME280;42018;48.588;10.836;2024-02-21T05:00:20;97466.66;;;7.28;65.05
56142;BME280;42018;48.588;10.836;2024-02-21T05:03:05;97456.53;;;7.01;65.81
56142;BME280;42018;48.588;10.836;2024-02-21T05:05:51;97449.97;;;7.04;65.72
56142;BME280;42018;48.588;10.836;2024-02-21T05:08:36;97453.28;;;6.99;65.77
56142;BME280;42018;48.588;10.836;2024-02-21T05:11:22;97443.69;;;6.75;66.99
56142;BME280;42018;48.588;10.836;2024-02-21T05:14:07;97432.59;;;6.72;67.54
56142;BME280;42018;48.588;10.836;2024-02-21T05:16:53;97427.16;;;6.56;67.98
56142;BME280;42018;48.588;10.836;2024-02-21T05:19:39;97426.47;;;6.60;67.99
56142;BME280;42018;48.588;10.836;2024-02-21T05:22:24;97416.16;;;6.89;67.27
56142;BME280;42018;48.588;10.836;2024-02-21T05:25:10;97415.53;;;7.17;66.58
56142;BME280;42018;48.588;10.836;2024-02-21T05:27:55;97412.56;;;7.13;67.02
56142;BME280;42018;48.588;10.836;2024-02-21T05:30:41;97412.47;;;7.32;66.41
56142;BME280;42018;48.588;10.836;2024-02-21T05:33:28;97419.72;;;7.48;65.80
56142;BME280;42018;48.588;10.836;2024-02-21T05:36:13;97415.22;;;7.60;65.61
56142;BME280;42018;48.588;10.836;2024-02-21T05:38:59;97412.28;;;7.68;65.10
56142;BME280;42018;48.588;10.836;2024-02-21T05:41:45;97404.47;;;7.74;64.56
56142;BME280;42018;48.588;10.836;2024-02-21T05:44:30;97407.69;;;7.76;64.76
56142;BME280;42018;48.588;10.836;2024-02-21T05:47:16;97403.53;;;7.80;64.21
56142;BME280;42018;48.588;10.836;2024-02-21T05:50:02;97408.03;;;7.79;64.32
56142;BME280;42018;48.588;10.836;2024-02-21T05:52:48;97408.25;;;7.78;64.47
56142;BME280;42018;48.588;10.836;2024-02-21T05:55:33;97401.47;;;7.82;64.17
56142;BME280;42018;48.588;10.836;2024-02-21T05:58:20;97394.25;;;7.65;64.71
56142;BME280;42018;48.588;10.836;2024-02-21T06:01:05;97387.16;;;7.54;65.12
56142;BME280;42018;48.588;10.836;2024-02-21T06:03:52;97382.34;;;7.51;64.59
56142;BME280;42018;48.588;10.836;2024-02-21T06:06:37;97387.94;;;7.43;64.67
56142;BME280;42018;48.588;10.836;2024-02-21T06:09:23;97388.16;;;7.18;65.82
56142;BME280;42018;48.588;10.836;2024-02-21T06:12:08;97389.06;;;7.12;65.86
56142;BME280;42018;48.588;10.836;2024-02-21T06:14:54;97389.53;;;7.09;66.54
56142;BME280;42018;48.588;10.836;2024-02-21T06:17:39;97388.38;;;7.05;66.59
56142;BME280;42018;48.588;10.836;2024-02-21T06:20:25;97392.81;;;7.04;66.36
56142;BME280;42018;48.588;10.836;2024-02-21T06:23:11;97381.69;;;6.90;66.49
56142;BME280;42018;48.588;10.836;2024-02-21T06:25:57;97389.19;;;6.75;67.04
56142;BME280;42018;48.588;10.836;2024-02-21T06:28:42;97385.22;;;6.84;66.90
56142;BME280;42018;48.588;10.836;2024-02-21T06:31:28;97382.81;;;6.83;66.81
56142;BME280;42018;48.588;10.836;2024-02-21T06:34:14;97381.69;;;6.90;66.63
56142;BME280;42018;48.588;10.836;2024-02-21T06:36:59;97383.84;;;6.82;66.85
56142;BME280;42018;48.588;10.836;2024-02-21T06:39:45;97377.31;;;6.84;66.98
56142;BME280;42018;48.588;10.836;2024-02-21T06:42:30;97379.19;;;6.95;66.74
56142;BME280;42018;48.588;10.836;2024-02-21T06:45:16;97377.50;;;7.01;66.68
56142;BME280;42018;48.588;10.836;2024-02-21T06:48:02;97378.16;;;6.96;66.44
56142;BME280;42018;48.588;10.836;2024-02-21T06:50:48;97378.72;;;6.87;66.99
56142;BME280;42018;48.588;10.836;2024-02-21T06:53:33;97383.47;;;6.66;67.88
56142;BME280;42018;48.588;10.836;2024-02-21T06:56:20;97386.31;;;6.65;68.79
56142;BME280;42018;48.588;10.836;2024-02-21T06:59:06;97388.94;;;6.65;68.83
56142;BME280;42018;48.588;10.836;2024-02-21T07:01:53;97389.88;;;6.70;69.21
56142;BME280;42018;48.588;10.836;2024-02-21T07:04:40;97390.06;;;6.87;68.72
56142;BME280;42018;48.588;10.836;2024-02-21T07:07:26;97397.06;;;7.05;68.69
56142;BME280;42018;48.588;10.836;2024-02-21T07:10:11;97398.94;;;7.16;68.53
56142;BME280;42018;48.588;10.836;2024-02-21T07:12:57;97399.97;;;7.15;68.67
56142;BME280;42018;48.588;10.836;2024-02-21T07:15:43;97392.63;;;7.29;68.31
56142;BME280;42018;48.588;10.836;2024-02-21T07:18:28;97386.13;;;7.43;67.48
56142;BME280;42018;48.588;10.836;2024-02-21T07:21:14;97381.66;;;7.56;66.85
56142;BME280;42018;48.588;10.836;2024-02-21T07:24:00;97382.00;;;7.59;66.38
56142;BME280;42018;48.588;10.836;2024-02-21T07:26:46;97372.72;;;7.68;66.36
56142;BME280;42018;48.588;10.836;2024-02-21T07:29:31;97366.03;;;7.78;65.58
56142;BME280;42018;48.588;10.836;2024-02-21T07:32:17;97359.03;;;7.83;65.38
56142;BME280;42018;48.588;10.836;2024-02-21T07:35:02;97354.25;;;7.68;65.01
56142;BME280;42018;48.588;10.836;2024-02-21T07:37:48;97351.94;;;7.60;65.13
56142;BME280;42018;48.588;10.836;2024-02-21T07:40:34;97356.06;;;7.56;65.13
56142;BME280;42018;48.588;10.836;2024-02-21T07:43:20;97361.47;;;7.61;65.83
56142;BME280;42018;48.588;10.836;2024-02-21T07:46:07;97355.53;;;7.54;66.86
56142;BME280;42018;48.588;10.836;2024-02-21T07:48:53;97358.63;;;7.51;66.03
56142;BME280;42018;48.588;10.836;2024-02-21T07:51:38;97359.16;;;7.53;66.18
56142;BME280;42018;48.588;10.836;2024-02-21T07:54:24;97360.19;;;7.29;66.07
56142;BME280;42018;48.588;10.836;2024-02-21T07:57:09;97370.53;;;7.30;66.29
56142;BME280;42018;48.588;10.836;2024-02-21T07:59:55;97369.34;;;7.14;65.94
56142;BME280;42018;48.588;10.836;2024-02-21T08:02:40;97371.44;;;7.24;66.32
56142;BME280;42018;48.588;10.836;2024-02-21T08:05:27;97374.41;;;7.39;65.77
56142;BME280;42018;48.588;10.836;2024-02-21T08:08:15;97366.19;;;7.48;65.28
56142;BME280;42018;48.588;10.836;2024-02-21T08:11:05;97361.72;;;7.36;65.05
56142;BME280;42018;48.588;10.836;2024-02-21T08:13:50;97365.53;;;6.87;66.14
56142;BME280;42018;48.588;10.836;2024-02-21T08:16:36;97360.19;;;7.17;66.95
56142;BME280;42018;48.588;10.836;2024-02-21T08:19:22;97340.63;;;7.48;66.19
56142;BME280;42018;48.588;10.836;2024-02-21T08:22:08;97342.28;;;7.78;64.64
56142;BME280;42018;48.588;10.836;2024-02-21T08:24:53;97333.47;;;7.60;64.18
56142;BME280;42018;48.588;10.836;2024-02-21T08:27:39;97322.47;;;7.63;65.10
56142;BME280;42018;48.588;10.836;2024-02-21T08:30:25;97325.81;;;7.59;63.72
56142;BME280;42018;48.588;10.836;2024-02-21T08:33:10;97332.44;;;7.73;64.34
56142;BME280;42018;48.588;10.836;2024-02-21T08:35:56;97325.22;;;7.57;64.58
56142;BME280;42018;48.588;10.836;2024-02-21T08:38:41;97327.28;;;7.66;65.34
56142;BME280;42018;48.588;10.836;2024-02-21T08:41:27;97324.13;;;7.93;64.96
56142;BME280;42018;48.588;10.836;2024-02-21T08:44:12;97320.44;;;8.06;64.41
56142;BME280;42018;48.588;10.836;2024-02-21T08:46:57;97320.69;;;8.33;64.19
56142;BME280;42018;48.588;10.836;2024-02-21T08:49:43;97318.88;;;8.22;63.11
56142;BME280;42018;48.588;10.836;2024-02-21T08:52:28;97315.06;;;8.29;63.12
56142;BME280;42018;48.588;10.836;2024-02-21T08:55:14;97309.44;;;8.37;63.62
56142;BME280;42018;48.588;10.836;2024-02-21T08:58:00;97300.31;;;8.45;63.39
56142;BME280;42018;48.588;10.836;2024-02-21T09:00:46;97307.63;;;8.55;61.51
56142;BME280;42018;48.588;10.836;2024-02-21T09:03:32;97293.25;;;8.79;62.17
56142;BME280;42018;48.588;10.836;2024-02-21T09:06:18;97287.69;;;8.64;61.99
56142;BME280;42018;48.588;10.836;2024-02-21T09:09:03;97299.84;;;8.20;61.81
56142;BME280;42018;48.588;10.836;2024-02-21T09:11:49;97296.44;;;8.65;62.04
56142;BME280;42018;48.588;10.836;2024-02-21T09:14:37;97283.53;;;9.19;60.91
56142;BME280;42018;48.588;10.836;2024-02-21T09:17:23;97279.34;;;9.40;59.25
56142;BME280;42018;48.588;10.836;2024-02-21T09:20:10;97279.59;;;9.21;59.36
56142;BME280;42018;48.588;10.836;2024-02-21T09:22:57;97275.16;;;9.44;59.37
56142;BME280;42018;48.588;10.836;2024-02-21T09:25:42;97269.56;;;9.84;59.46
56142;BME280;42018;48.588;10.836;2024-02-21T09:28:28;97265.56;;;9.81;58.85
56142;BME280;42018;48.588;10.836;2024-02-21T09:31:13;97266.88;;;10.06;58.19
56142;BME280;42018;48.588;10.836;2024-02-21T09:33:59;97262.19;;;10.35;57.61
56142;BME280;42018;48.588;10.836;2024-02-21T09:36:44;97260.56;;;10.29;56.30
56142;BME280;42018;48.588;10.836;2024-02-21T09:39:30;97255.91;;;10.19;57.23
56142;BME280;42018;48.588;10.836;2024-02-21T09:42:19;97250.91;;;9.96;57.11
56142;BME280;42018;48.588;10.836;2024-02-21T09:45:08;97249.59;;;9.98;57.84
56142;BME280;42018;48.588;10.836;2024-02-21T09:50:56;97251.75;;;10.01;57.18
56142;BME280;42018;48.588;10.836;2024-02-21T09:53:43;97244.03;;;10.22;57.53
56142;BME280;42018;48.588;10.836;2024-02-21T09:56:29;97241.50;;;10.32;55.98
56142;BME280;42018;48.588;10.836;2024-02-21T09:59:16;97241.63;;;10.20;55.81
56142;BME280;42018;48.588;10.836;2024-02-21T10:02:01;97229.56;;;10.62;55.51
56142;BME280;42018;48.588;10.836;2024-02-21T10:04:47;97219.84;;;10.72;55.25
56142;BME280;42018;48.588;10.836;2024-02-21T10:07:33;97220.56;;;10.63;56.05
56142;BME280;42018;48.588;10.836;2024-02-21T10:10:19;97222.97;;;10.64;55.83
56142;BME280;42018;48.588;10.836;2024-02-21T10:13:07;97208.75;;;10.75;54.98
56142;BME280;42018;48.588;10.836;2024-02-21T10:16:03;97213.47;;;10.68;55.44
56142;BME280;42018;48.588;10.836;2024-02-21T10:18:54;97215.19;;;10.52;55.25
56142;BME280;42018;48.588;10.836;2024-02-21T10:21:39;97214.22;;;10.64;54.55
56142;BME280;42018;48.588;10.836;2024-02-21T10:24:28;97208.38;;;10.62;54.77
56142;BME280;42018;48.588;10.836;2024-02-21T10:27:13;97197.19;;;10.92;55.34
56142;BME280;42018;48.588;10.836;2024-02-21T10:29:59;97201.03;;;10.74;54.05
56142;BME280;42018;48.588;10.836;2024-02-21T10:32:54;97191.50;;;11.20;54.47
56142;BME280;42018;48.588;10.836;2024-02-21T10:35:39;97185.88;;;11.07;53.26
56142;BME280;42018;48.588;10.836;2024-02-21T10:38:26;97181.72;;;11.26;53.25
56142;BME280;42018;48.588;10.836;2024-02-21T10:41:14;97180.75;;;11.47;54.23
56142;BME280;42018;48.588;10.836;2024-02-21T10:44:05;97174.94;;;11.56;53.94
56142;BME280;42018;48.588;10.836;2024-02-21T10:46:51;97167.38;;;11.90;52.73
56142;BME280;42018;48.588;10.836;2024-02-21T10:49:41;97155.94;;;11.94;51.66
56142;BME280;42018;48.588;10.836;2024-02-21T10:52:54;97165.16;;;11.66;52.52
56142;BME280;42018;48.588;10.836;2024-02-21T10:55:47;97165.66;;;11.58;51.48
56142;BME280;42018;48.588;10.836;2024-02-21T10:58:36;97156.94;;;11.68;51.69
56142;BME280;42018;48.588;10.836;2024-02-21T11:01:23;97151.34;;;11.64;51.03
56142;BME280;42018;48.588;10.836;2024-02-21T11:04:12;97147.88;;;11.54;50.91
56142;BME280;42018;48.588;10.836;2024-02-21T11:06:58;97137.78;;;11.56;49.83
56142;BME280;42018;48.588;10.836;2024-02-21T11:09:53;97135.94;;;11.56;51.46
56142;BME280;42018;48.588;10.836;2024-02-21T11:12:40;97138.63;;;11.71;50.04
56142;BME280;42018;48.588;10.836;2024-02-21T11:15:26;97129.06;;;11.60;50.53
56142;BME280;42018;48.588;10.836;2024-02-21T11:18:23;97125.69;;;11.95;50.40
56142;BME280;42018;48.588;10.836;2024-02-21T11:21:08;97127.28;;;12.12;51.12
56142;BME280;42018;48.588;10.836;2024-02-21T11:23:55;97121.72;;;11.93;50.21
56142;BME280;42018;48.588;10.836;2024-02-21T11:26:41;97115.59;;;12.13;48.88
56142;BME280;42018;48.588;10.836;2024-02-21T11:29:30;97110.03;;;12.04;48.07
56142;BME280;42018;48.588;10.836;2024-02-21T11:32:17;97104.97;;;11.92;48.40
56142;BME280;42018;48.588;10.836;2024-02-21T11:35:04;97087.69;;;11.95;48.77
56142;BME280;42018;48.588;10.836;2024-02-21T11:37:50;97085.84;;;12.01;47.29
56142;BME280;42018;48.588;10.836;2024-02-21T11:40:38;97086.66;;;11.86;48.82
56142;BME280;42018;48.588;10.836;2024-02-21T11:43:25;97079.19;;;11.83;49.32
56142;BME280;42018;48.588;10.836;2024-02-21T11:46:11;97067.28;;;11.95;48.60
56142;BME280;42018;48.588;10.836;2024-02-21T11:48:56;97061.69;;;12.17;48.42
56142;BME280;42018;48.588;10.836;2024-02-21T11:51:45;97054.50;;;12.18;48.68
56142;BME280;42018;48.588;10.836;2024-02-21T11:54:31;97042.81;;;12.24;48.50
56142;BME280;42018;48.588;10.836;2024-02-21T11:57:17;97041.47;;;12.37;48.06
56142;BME280;42018;48.588;10.836;2024-02-21T12:00:16;97033.09;;;12.79;48.63
56142;BME280;42018;48.588;10.836;2024-02-21T12:03:04;97031.53;;;12.78;46.93
56142;BME280;42018;48.588;10.836;2024-02-21T12:05:50;97017.66;;;12.91;46.49
56142;BME280;42018;48.588;10.836;2024-02-21T12:08:43;97012.31;;;12.91;46.07
56142;BME280;42018;48.588;10.836;2024-02-21T12:11:28;96995.91;;;12.74;46.37
56142;BME280;42018;48.588;10.836;2024-02-21T12:14:17;96988.97;;;12.78;46.99
56142;BME280;42018;48.588;10.836;2024-02-21T12:17:03;96983.94;;;13.26;47.22
56142;BME280;42018;48.588;10.836;2024-02-21T12:19:50;96986.28;;;13.38;45.54
56142;BME280;42018;48.588;10.836;2024-02-21T12:22:36;96980.22;;;13.27;44.40
56142;BME280;42018;48.588;10.836;2024-02-21T12:25:22;96971.38;;;13.37;44.74
56142;BME280;42018;48.588;10.836;2024-02-21T12:28:08;96974.72;;;13.08;45.67
56142;BME280;42018;48.588;10.836;2024-02-21T12:30:54;96964.47;;;12.91;46.05
56142;BME280;42018;48.588;10.836;2024-02-21T12:33:39;96963.53;;;13.11;45.46
56142;BME280;42018;48.588;10.836;2024-02-21T12:36:25;96955.47;;;13.27;44.21
56142;BME280;42018;48.588;10.836;2024-02-21T12:39:11;96954.28;;;13.43;43.58
56142;BME280;42018;48.588;10.836;2024-02-21T12:41:57;96943.84;;;13.52;44.10
56142;BME280;42018;48.588;10.836;2024-02-21T12:44:42;96943.72;;;13.33;44.36
56142;BME280;42018;48.588;10.836;2024-02-21T12:47:28;96937.16;;;13.20;45.08
56142;BME280;42018;48.588;10.836;2024-02-21T12:50:13;96939.59;;;13.11;44.14
56142;BME280;42018;48.588;10.836;2024-02-21T12:53:00;96926.34;;;13.06;43.97
56142;BME280;42018;48.588;10.836;2024-02-21T12:55:46;96926.66;;;13.34;44.33
56142;BME280;42018;48.588;10.836;2024-02-21T12:58:31;96927.00;;;13.27;43.91
56142;BME280;42018;48.588;10.836;2024-02-21T13:01:17;96919.03;;;13.22;42.29
56142;BME280;42018;48.588;10.836;2024-02-21T13:04:02;96912.41;;;13.54;41.35
56142;BME280;42018;48.588;10.836;2024-02-21T13:06:48;96910.94;;;13.72;43.98
56142;BME280;42018;48.588;10.836;2024-02-21T13:09:34;96893.97;;;13.92;43.27
56142;BME280;42018;48.588;10.836;2024-02-21T13:12:20;96897.63;;;13.72;43.61
56142;BME280;42018;48.588;10.836;2024-02-21T13:15:06;96889.16;;;13.35;42.99
56142;BME280;42018;48.588;10.836;2024-02-21T13:17:52;96879.66;;;13.82;43.62
56142;BME280;42018;48.588;10.836;2024-02-21T13:20:37;96884.09;;;14.16;42.42
56142;BME280;42018;48.588;10.836;2024-02-21T13:23:23;96871.84;;;14.15;42.06
56142;BME280;42018;48.588;10.836;2024-02-21T13:26:09;96857.06;;;14.47;41.17
56142;BME280;42018;48.588;10.836;2024-02-21T13:28:55;96853.50;;;14.56;41.10
56142;BME280;42018;48.588;10.836;2024-02-21T13:31:41;96854.91;;;14.49;41.02
56142;BME280;42018;48.588;10.836;2024-02-21T13:34:27;96852.28;;;14.44;40.31
56142;BME280;42018;48.588;10.836;2024-02-21T13:37:12;96845.50;;;14.56;40.92
56142;BME280;42018;48.588;10.836;2024-02-21T13:39:59;96844.56;;;14.66;41.02
56142;BME280;42018;48.588;10.836;2024-02-21T13:42:44;96833.88;;;14.04;39.51
56142;BME280;42018;48.588;10.836;2024-02-21T13:45:30;96827.31;;;13.97;40.36
56142;BME280;42018;48.588;10.836;2024-02-21T13:48:15;96823.47;;;14.27;40.13
56142;BME280;42018;48.588;10.836;2024-02-21T13:51:02;96821.66;;;14.22;39.79
56142;BME280;42018;48.588;10.836;2024-02-21T13:53:47;96814.88;;;13.87;40.22
56142;BME280;42018;48.588;10.836;2024-02-21T13:56:33;96812.00;;;13.83;40.59
56142;BME280;42018;48.588;10.836;2024-02-21T13:59:20;96803.66;;;13.90;41.94
56142;BME280;42018;48.588;10.836;2024-02-21T14:02:07;96797.66;;;14.22;40.88
56142;BME280;42018;48.588;10.836;2024-02-21T14:04:57;96796.66;;;14.18;39.31
56142;BME280;42018;48.588;10.836;2024-02-21T14:07:44;96793.44;;;13.78;39.82
56142;BME280;42018;48.588;10.836;2024-02-21T14:10:30;96785.81;;;13.90;40.35
56142;BME280;42018;48.588;10.836;2024-02-21T14:13:15;96787.41;;;13.92;40.78
56142;BME280;42018;48.588;10.836;2024-02-21T14:16:03;96782.59;;;13.94;40.47
56142;BME280;42018;48.588;10.836;2024-02-21T14:18:54;96784.47;;;13.69;40.41
56142;BME280;42018;48.588;10.836;2024-02-21T14:21:39;96779.91;;;13.94;40.29
56142;BME280;42018;48.588;10.836;2024-02-21T14:24:25;96771.56;;;13.81;40.75
56142;BME280;42018;48.588;10.836;2024-02-21T14:27:10;96765.38;;;14.05;41.59
56142;BME280;42018;48.588;10.836;2024-02-21T14:29:57;96757.91;;;14.07;40.52
56142;BME280;42018;48.588;10.836;2024-02-21T14:32:44;96760.13;;;14.00;41.36
56142;BME280;42018;48.588;10.836;2024-02-21T14:35:30;96760.25;;;13.89;40.58
56142;BME280;42018;48.588;10.836;2024-02-21T14:38:16;96759.13;;;13.96;40.84
56142;BME280;42018;48.588;10.836;2024-02-21T14:41:02;96759.63;;;13.98;39.56